sensor_id;sensor_type;location;lat;lon;timestamp;P1;durP1;ratioP1;P2;durP2;ratioP2
61915;SDS011;47868;51.326;6.550;2023-03-21T00:04:48;11.80;;;6.28;;
61915;SDS011;47868;51.326;6.550;2023-03-21T00:07:14;17.17;;;6.60;;
61915;SDS011;47868;51.326;6.550;2023-03-21T00:09:40;16.40;;;6.75;;
61915;SDS011;47868;51.326;6.550;2023-03-21T00:12:06;12.60;;;6.88;;
61915;SDS011;47868;51.326;6.550;2023-03-21T00:14:33;14.63;;;6.43;;
61915;SDS011;47868;51.326;6.550;2023-03-21T00:17:01;16.35;;;6.68;;
61915;SDS011;47868;51.326;6.550;2023-03-21T00:19:27;14.80;;;6.32;;
61915;SDS011;47868;51.326;6.550;2023-03-21T00:21:54;10.73;;;6.80;;
61915;SDS011;47868;51.326;6.550;2023-03-21T00:24:20;14.15;;;6.55;;
61915;SDS011;47868;51.326;6.550;2023-03-21T00:26:47;12.07;;;6.85;;
61915;SDS011;47868;51.326;6.550;2023-03-21T00:29:13;16.38;;;6.57;;
61915;SDS011;47868;51.326;6.550;2023-03-21T00:31:39;18.25;;;6.65;;
61915;SDS011;47868;51.326;6.550;2023-03-21T00:34:05;13.98;;;6.15;;
61915;SDS011;47868;51.326;6.550;2023-03-21T00:36:31;12.60;;;6.00;;
61915;SDS011;47868;51.326;6.550;2023-03-21T00:38:57;17.98;;;6.88;;
61915;SDS011;47868;51.326;6.550;2023-03-21T00:41:24;15.68;;;6.90;;
61915;SDS011;47868;51.326;6.550;2023-03-21T00:43:50;13.48;;;6.70;;
61915;SDS011;47868;51.326;6.550;2023-03-21T00:46:19;14.60;;;6.93;;
61915;SDS011;47868;51.326;6.550;2023-03-21T00:48:45;13.13;;;6.38;;
61915;SDS011;47868;51.326;6.550;2023-03-21T00:51:13;14.43;;;6.60;;
61915;SDS011;47868;51.326;6.550;2023-03-21T00:53:39;17.42;;;7.35;;
61915;SDS011;47868;51.326;6.550;2023-03-21T00:56:05;13.27;;;6.07;;
61915;SDS011;47868;51.326;6.550;2023-03-21T00:58:31;12.93;;;6.82;;
61915;SDS011;47868;51.326;6.550;2023-03-21T01:00:57;11.30;;;6.47;;
61915;SDS011;47868;51.326;6.550;2023-03-21T01:03:26;20.38;;;7.35;;
61915;SDS011;47868;51.326;6.550;2023-03-21T01:05:53;14.07;;;7.00;;
61915;SDS011;47868;51.326;6.550;2023-03-21T01:08:41;15.27;;;6.38;;
61915;SDS011;47868;51.326;6.550;2023-03-21T01:11:09;15.30;;;6.35;;
61915;SDS011;47868;51.326;6.550;2023-03-21T01:13:35;18.80;;;7.80;;
61915;SDS011;47868;51.326;6.550;2023-03-21T01:16:03;15.30;;;7.55;;
61915;SDS011;47868;51.326;6.550;2023-03-21T01:18:30;14.02;;;7.10;;
61915;SDS011;47868;51.326;6.550;2023-03-21T01:20:57;15.45;;;6.85;;
61915;SDS011;47868;51.326;6.550;2023-03-21T01:23:24;13.85;;;7.35;;
61915;SDS011;47868;51.326;6.550;2023-03-21T01:25:51;17.58;;;7.97;;
61915;SDS011;47868;51.326;6.550;2023-03-21T01:28:17;15.43;;;6.72;;
61915;SDS011;47868;51.326;6.550;2023-03-21T01:30:50;16.67;;;6.78;;
61915;SDS011;47868;51.326;6.550;2023-03-21T01:33:17;12.82;;;7.55;;
61915;SDS011;47868;51.326;6.550;2023-03-21T01:35:43;15.60;;;8.00;;
61915;SDS011;47868;51.326;6.550;2023-03-21T01:38:10;16.60;;;8.43;;
61915;SDS011;47868;51.326;6.550;2023-03-21T01:40:36;19.00;;;8.20;;
61915;SDS011;47868;51.326;6.550;2023-03-21T01:43:03;18.33;;;8.35;;
61915;SDS011;47868;51.326;6.550;2023-03-21T01:48:14;15.27;;;8.20;;
61915;SDS011;47868;51.326;6.550;2023-03-21T01:50:40;14.65;;;8.40;;
61915;SDS011;47868;51.326;6.550;2023-03-21T01:53:07;19.58;;;9.30;;
61915;SDS011;47868;51.326;6.550;2023-03-21T01:55:33;15.45;;;8.73;;
61915;SDS011;47868;51.326;6.550;2023-03-21T01:58:00;18.85;;;9.15;;
61915;SDS011;47868;51.326;6.550;2023-03-21T02:00:28;17.92;;;8.70;;
61915;SDS011;47868;51.326;6.550;2023-03-21T02:02:55;19.15;;;8.60;;
61915;SDS011;47868;51.326;6.550;2023-03-21T02:05:29;20.75;;;8.60;;
61915;SDS011;47868;51.326;6.550;2023-03-21T02:07:58;16.17;;;9.00;;
61915;SDS011;47868;51.326;6.550;2023-03-21T02:10:24;13.93;;;8.45;;
61915;SDS011;47868;51.326;6.550;2023-03-21T02:12:50;19.05;;;9.30;;
61915;SDS011;47868;51.326;6.550;2023-03-21T02:15:19;19.17;;;8.32;;
61915;SDS011;47868;51.326;6.550;2023-03-21T02:17:51;17.45;;;9.20;;
61915;SDS011;47868;51.326;6.550;2023-03-21T02:31:00;14.18;;;8.23;;
61915;SDS011;47868;51.326;6.550;2023-03-21T02:38:42;16.00;;;8.80;;
61915;SDS011;47868;51.326;6.550;2023-03-21T02:46:12;16.83;;;8.80;;
61915;SDS011;47868;51.326;6.550;2023-03-21T02:49:02;16.48;;;8.48;;
61915;SDS011;47868;51.326;6.550;2023-03-21T02:51:25;16.10;;;8.70;;
61915;SDS011;47868;51.326;6.550;2023-03-21T02:53:54;17.73;;;9.40;;
61915;SDS011;47868;51.326;6.550;2023-03-21T02:56:22;14.18;;;8.38;;
61915;SDS011;47868;51.326;6.550;2023-03-21T02:58:50;16.25;;;8.55;;
61915;SDS011;47868;51.326;6.550;2023-03-21T03:01:17;15.80;;;9.23;;
61915;SDS011;47868;51.326;6.550;2023-03-21T03:03:43;21.40;;;9.93;;
61915;SDS011;47868;51.326;6.550;2023-03-21T03:06:13;17.92;;;8.80;;
61915;SDS011;47868;51.326;6.550;2023-03-21T03:14:01;14.68;;;9.00;;
61915;SDS011;47868;51.326;6.550;2023-03-21T03:19:17;19.23;;;9.27;;
61915;SDS011;47868;51.326;6.550;2023-03-21T03:21:48;17.65;;;9.52;;
61915;SDS011;47868;51.326;6.550;2023-03-21T03:24:17;19.73;;;9.13;;
61915;SDS011;47868;51.326;6.550;2023-03-21T03:26:52;13.68;;;8.13;;
61915;SDS011;47868;51.326;6.550;2023-03-21T03:29:20;14.27;;;8.88;;
61915;SDS011;47868;51.326;6.550;2023-03-21T03:31:48;14.60;;;8.75;;
61915;SDS011;47868;51.326;6.550;2023-03-21T03:34:18;13.77;;;9.43;;
61915;SDS011;47868;51.326;6.550;2023-03-21T03:36:46;17.70;;;8.77;;
61915;SDS011;47868;51.326;6.550;2023-03-21T03:39:20;14.18;;;9.05;;
61915;SDS011;47868;51.326;6.550;2023-03-21T03:41:50;14.30;;;8.93;;
61915;SDS011;47868;51.326;6.550;2023-03-21T03:44:17;16.35;;;9.32;;
61915;SDS011;47868;51.326;6.550;2023-03-21T03:46:48;16.98;;;9.10;;
61915;SDS011;47868;51.326;6.550;2023-03-21T03:49:17;16.67;;;8.13;;
61915;SDS011;47868;51.326;6.550;2023-03-21T03:51:50;16.90;;;9.20;;
61915;SDS011;47868;51.326;6.550;2023-03-21T03:54:19;14.90;;;9.25;;
61915;SDS011;47868;51.326;6.550;2023-03-21T03:56:46;14.95;;;8.30;;
61915;SDS011;47868;51.326;6.550;2023-03-21T03:59:12;20.65;;;8.02;;
61915;SDS011;47868;51.326;6.550;2023-03-21T04:01:43;18.85;;;8.73;;
61915;SDS011;47868;51.326;6.550;2023-03-21T04:04:09;15.60;;;8.45;;
61915;SDS011;47868;51.326;6.550;2023-03-21T04:06:37;17.42;;;8.57;;
61915;SDS011;47868;51.326;6.550;2023-03-21T04:09:03;15.38;;;8.35;;
61915;SDS011;47868;51.326;6.550;2023-03-21T04:11:29;15.73;;;8.90;;
61915;SDS011;47868;51.326;6.550;2023-03-21T04:13:55;18.98;;;9.98;;
61915;SDS011;47868;51.326;6.550;2023-03-21T04:16:21;17.98;;;9.40;;
61915;SDS011;47868;51.326;6.550;2023-03-21T04:18:47;12.40;;;8.50;;
61915;SDS011;47868;51.326;6.550;2023-03-21T04:21:13;18.38;;;8.80;;
61915;SDS011;47868;51.326;6.550;2023-03-21T04:23:39;14.52;;;9.00;;
61915;SDS011;47868;51.326;6.550;2023-03-21T04:26:06;17.35;;;8.93;;
61915;SDS011;47868;51.326;6.550;2023-03-21T04:28:32;17.00;;;8.63;;
61915;SDS011;47868;51.326;6.550;2023-03-21T04:31:00;13.02;;;8.60;;
61915;SDS011;47868;51.326;6.550;2023-03-21T04:33:27;22.85;;;9.32;;
61915;SDS011;47868;51.326;6.550;2023-03-21T04:35:53;17.20;;;8.52;;
61915;SDS011;47868;51.326;6.550;2023-03-21T04:38:23;19.02;;;8.73;;
61915;SDS011;47868;51.326;6.550;2023-03-21T04:40:50;16.50;;;8.30;;
61915;SDS011;47868;51.326;6.550;2023-03-21T04:43:16;19.60;;;9.05;;
61915;SDS011;47868;51.326;6.550;2023-03-21T04:45:42;16.95;;;9.63;;
61915;SDS011;47868;51.326;6.550;2023-03-21T04:48:08;17.15;;;8.95;;
61915;SDS011;47868;51.326;6.550;2023-03-21T04:50:34;21.33;;;10.15;;
61915;SDS011;47868;51.326;6.550;2023-03-21T04:53:00;13.23;;;9.52;;
61915;SDS011;47868;51.326;6.550;2023-03-21T04:55:26;17.50;;;9.98;;
61915;SDS011;47868;51.326;6.550;2023-03-21T04:57:53;16.42;;;8.85;;
61915;SDS011;47868;51.326;6.550;2023-03-21T05:00:19;18.75;;;10.00;;
61915;SDS011;47868;51.326;6.550;2023-03-21T05:02:46;16.42;;;8.60;;
61915;SDS011;47868;51.326;6.550;2023-03-21T05:05:12;16.13;;;9.27;;
61915;SDS011;47868;51.326;6.550;2023-03-21T05:07:39;16.17;;;9.48;;
61915;SDS011;47868;51.326;6.550;2023-03-21T05:10:06;17.30;;;9.90;;
61915;SDS011;47868;51.326;6.550;2023-03-21T05:12:32;20.25;;;9.70;;
61915;SDS011;47868;51.326;6.550;2023-03-21T05:14:58;18.40;;;9.85;;
61915;SDS011;47868;51.326;6.550;2023-03-21T05:17:24;17.50;;;9.32;;
61915;SDS011;47868;51.326;6.550;2023-03-21T05:19:52;16.98;;;8.70;;
61915;SDS011;47868;51.326;6.550;2023-03-21T05:22:20;16.35;;;8.57;;
61915;SDS011;47868;51.326;6.550;2023-03-21T05:24:48;19.38;;;9.30;;
61915;SDS011;47868;51.326;6.550;2023-03-21T05:27:18;15.50;;;9.15;;
61915;SDS011;47868;51.326;6.550;2023-03-21T05:29:58;19.73;;;9.23;;
61915;SDS011;47868;51.326;6.550;2023-03-21T05:32:25;15.75;;;8.05;;
61915;SDS011;47868;51.326;6.550;2023-03-21T05:34:51;20.00;;;9.90;;
61915;SDS011;47868;51.326;6.550;2023-03-21T05:37:17;24.98;;;9.23;;
61915;SDS011;47868;51.326;6.550;2023-03-21T05:39:43;14.57;;;8.57;;
61915;SDS011;47868;51.326;6.550;2023-03-21T05:42:09;16.90;;;8.88;;
61915;SDS011;47868;51.326;6.550;2023-03-21T05:44:35;15.93;;;9.30;;
61915;SDS011;47868;51.326;6.550;2023-03-21T05:47:01;13.27;;;9.32;;
61915;SDS011;47868;51.326;6.550;2023-03-21T05:49:30;18.25;;;8.40;;
61915;SDS011;47868;51.326;6.550;2023-03-21T05:51:56;13.57;;;8.80;;
61915;SDS011;47868;51.326;6.550;2023-03-21T05:54:22;17.23;;;8.77;;
61915;SDS011;47868;51.326;6.550;2023-03-21T05:56:48;17.38;;;9.25;;
61915;SDS011;47868;51.326;6.550;2023-03-21T05:59:14;16.80;;;9.52;;
61915;SDS011;47868;51.326;6.550;2023-03-21T06:01:40;17.35;;;9.25;;
61915;SDS011;47868;51.326;6.550;2023-03-21T06:04:06;18.42;;;8.48;;
61915;SDS011;47868;51.326;6.550;2023-03-21T06:06:32;13.57;;;8.15;;
61915;SDS011;47868;51.326;6.550;2023-03-21T06:08:59;17.42;;;8.35;;
61915;SDS011;47868;51.326;6.550;2023-03-21T06:11:26;19.27;;;8.90;;
61915;SDS011;47868;51.326;6.550;2023-03-21T06:13:53;16.92;;;8.52;;
61915;SDS011;47868;51.326;6.550;2023-03-21T06:16:19;17.05;;;8.75;;
61915;SDS011;47868;51.326;6.550;2023-03-21T06:18:45;17.40;;;8.27;;
61915;SDS011;47868;51.326;6.550;2023-03-21T06:21:11;15.52;;;8.02;;
61915;SDS011;47868;51.326;6.550;2023-03-21T06:23:37;16.50;;;8.43;;
61915;SDS011;47868;51.326;6.550;2023-03-21T06:26:03;17.58;;;8.70;;
61915;SDS011;47868;51.326;6.550;2023-03-21T06:28:30;16.65;;;9.27;;
61915;SDS011;47868;51.326;6.550;2023-03-21T06:30:56;15.88;;;8.82;;
61915;SDS011;47868;51.326;6.550;2023-03-21T06:33:22;17.52;;;8.25;;
61915;SDS011;47868;51.326;6.550;2023-03-21T06:35:55;16.63;;;8.13;;
61915;SDS011;47868;51.326;6.550;2023-03-21T06:38:21;17.60;;;8.50;;
61915;SDS011;47868;51.326;6.550;2023-03-21T06:40:48;16.10;;;8.15;;
61915;SDS011;47868;51.326;6.550;2023-03-21T06:43:14;14.45;;;8.57;;
61915;SDS011;47868;51.326;6.550;2023-03-21T06:45:40;15.45;;;9.02;;
61915;SDS011;47868;51.326;6.550;2023-03-21T06:48:07;17.13;;;8.60;;
61915;SDS011;47868;51.326;6.550;2023-03-21T06:50:33;16.05;;;10.73;;
61915;SDS011;47868;51.326;6.550;2023-03-21T06:52:59;17.33;;;9.23;;
61915;SDS011;47868;51.326;6.550;2023-03-21T06:55:25;18.85;;;9.93;;
61915;SDS011;47868;51.326;6.550;2023-03-21T06:57:53;13.77;;;8.10;;
61915;SDS011;47868;51.326;6.550;2023-03-21T07:00:19;15.75;;;8.48;;
61915;SDS011;47868;51.326;6.550;2023-03-21T07:02:45;20.08;;;7.90;;
61915;SDS011;47868;51.326;6.550;2023-03-21T07:05:11;17.73;;;8.23;;
61915;SDS011;47868;51.326;6.550;2023-03-21T07:07:38;27.45;;;8.98;;
61915;SDS011;47868;51.326;6.550;2023-03-21T07:10:04;19.38;;;7.97;;
61915;SDS011;47868;51.326;6.550;2023-03-21T07:12:30;17.63;;;7.55;;
61915;SDS011;47868;51.326;6.550;2023-03-21T07:14:58;17.70;;;7.53;;
61915;SDS011;47868;51.326;6.550;2023-03-21T07:17:25;19.40;;;7.75;;
61915;SDS011;47868;51.326;6.550;2023-03-21T07:19:51;17.77;;;7.07;;
61915;SDS011;47868;51.326;6.550;2023-03-21T07:22:17;23.17;;;8.05;;
61915;SDS011;47868;51.326;6.550;2023-03-21T07:24:43;19.30;;;7.68;;
61915;SDS011;47868;51.326;6.550;2023-03-21T07:27:12;19.45;;;8.30;;
61915;SDS011;47868;51.326;6.550;2023-03-21T07:29:38;17.88;;;6.47;;
61915;SDS011;47868;51.326;6.550;2023-03-21T07:32:05;13.25;;;7.25;;
61915;SDS011;47868;51.326;6.550;2023-03-21T07:34:31;8.85;;;6.57;;
61915;SDS011;47868;51.326;6.550;2023-03-21T07:36:58;12.25;;;7.00;;
61915;SDS011;47868;51.326;6.550;2023-03-21T07:39:25;13.10;;;7.18;;
61915;SDS011;47868;51.326;6.550;2023-03-21T07:41:51;14.18;;;7.50;;
61915;SDS011;47868;51.326;6.550;2023-03-21T07:44:19;10.75;;;6.50;;
61915;SDS011;47868;51.326;6.550;2023-03-21T07:46:45;13.25;;;7.00;;
61915;SDS011;47868;51.326;6.550;2023-03-21T07:49:11;14.68;;;6.88;;
61915;SDS011;47868;51.326;6.550;2023-03-21T07:51:37;15.45;;;7.55;;
61915;SDS011;47868;51.326;6.550;2023-03-21T07:54:03;16.88;;;8.23;;
61915;SDS011;47868;51.326;6.550;2023-03-21T07:56:30;17.80;;;6.60;;
61915;SDS011;47868;51.326;6.550;2023-03-21T07:58:56;15.50;;;7.72;;
61915;SDS011;47868;51.326;6.550;2023-03-21T08:01:23;16.42;;;6.82;;
61915;SDS011;47868;51.326;6.550;2023-03-21T08:03:49;15.95;;;6.28;;
61915;SDS011;47868;51.326;6.550;2023-03-21T08:06:17;16.75;;;6.03;;
61915;SDS011;47868;51.326;6.550;2023-03-21T08:08:43;13.98;;;5.97;;
61915;SDS011;47868;51.326;6.550;2023-03-21T08:11:10;14.18;;;5.90;;
61915;SDS011;47868;51.326;6.550;2023-03-21T08:13:36;12.38;;;5.90;;
61915;SDS011;47868;51.326;6.550;2023-03-21T08:16:02;16.77;;;5.68;;
61915;SDS011;47868;51.326;6.550;2023-03-21T08:18:28;9.07;;;4.65;;
61915;SDS011;47868;51.326;6.550;2023-03-21T08:20:55;10.20;;;5.10;;
61915;SDS011;47868;51.326;6.550;2023-03-21T08:23:22;11.63;;;5.47;;
61915;SDS011;47868;51.326;6.550;2023-03-21T08:25:54;10.90;;;4.55;;
61915;SDS011;47868;51.326;6.550;2023-03-21T08:28:21;11.90;;;5.22;;
61915;SDS011;47868;51.326;6.550;2023-03-21T08:30:48;7.90;;;4.22;;
61915;SDS011;47868;51.326;6.550;2023-03-21T08:33:14;12.32;;;5.25;;
61915;SDS011;47868;51.326;6.550;2023-03-21T08:35:42;9.77;;;4.90;;
61915;SDS011;47868;51.326;6.550;2023-03-21T08:38:08;9.27;;;5.20;;
61915;SDS011;47868;51.326;6.550;2023-03-21T08:40:34;9.23;;;5.43;;
61915;SDS011;47868;51.326;6.550;2023-03-21T08:43:01;13.65;;;5.32;;
61915;SDS011;47868;51.326;6.550;2023-03-21T08:45:27;10.75;;;4.85;;
61915;SDS011;47868;51.326;6.550;2023-03-21T08:47:53;9.27;;;4.70;;
61915;SDS011;47868;51.326;6.550;2023-03-21T08:50:21;12.07;;;5.22;;
61915;SDS011;47868;51.326;6.550;2023-03-21T08:52:48;9.88;;;4.50;;
61915;SDS011;47868;51.326;6.550;2023-03-21T08:55:15;8.65;;;5.05;;
61915;SDS011;47868;51.326;6.550;2023-03-21T08:57:41;7.10;;;4.80;;
61915;SDS011;47868;51.326;6.550;2023-03-21T09:00:09;13.38;;;5.32;;
61915;SDS011;47868;51.326;6.550;2023-03-21T09:02:41;10.38;;;5.30;;
61915;SDS011;47868;51.326;6.550;2023-03-21T09:05:08;9.38;;;4.63;;
61915;SDS011;47868;51.326;6.550;2023-03-21T09:07:36;9.20;;;5.07;;
61915;SDS011;47868;51.326;6.550;2023-03-21T09:10:02;9.55;;;4.80;;
61915;SDS011;47868;51.326;6.550;2023-03-21T09:12:28;7.38;;;4.85;;
61915;SDS011;47868;51.326;6.550;2023-03-21T09:14:54;11.65;;;5.68;;
61915;SDS011;47868;51.326;6.550;2023-03-21T09:17:21;8.18;;;5.28;;
61915;SDS011;47868;51.326;6.550;2023-03-21T09:19:47;17.23;;;5.93;;
61915;SDS011;47868;51.326;6.550;2023-03-21T09:22:14;9.55;;;5.90;;
61915;SDS011;47868;51.326;6.550;2023-03-21T09:24:44;9.45;;;6.50;;
61915;SDS011;47868;51.326;6.550;2023-03-21T09:27:12;13.15;;;6.38;;
61915;SDS011;47868;51.326;6.550;2023-03-21T09:29:39;13.95;;;6.90;;
61915;SDS011;47868;51.326;6.550;2023-03-21T09:32:08;10.55;;;6.32;;
61915;SDS011;47868;51.326;6.550;2023-03-21T09:34:34;14.40;;;7.35;;
61915;SDS011;47868;51.326;6.550;2023-03-21T09:37:05;11.63;;;6.93;;
61915;SDS011;47868;51.326;6.550;2023-03-21T09:39:34;14.02;;;7.40;;
61915;SDS011;47868;51.326;6.550;2023-03-21T09:44:33;15.00;;;8.05;;
61915;SDS011;47868;51.326;6.550;2023-03-21T09:49:59;12.25;;;8.05;;
61915;SDS011;47868;51.326;6.550;2023-03-21T09:52:32;14.13;;;7.57;;
61915;SDS011;47868;51.326;6.550;2023-03-21T09:55:03;11.10;;;8.15;;
61915;SDS011;47868;51.326;6.550;2023-03-21T09:57:43;15.68;;;8.23;;
61915;SDS011;47868;51.326;6.550;2023-03-21T10:00:12;20.10;;;9.20;;
61915;SDS011;47868;51.326;6.550;2023-03-21T10:02:47;15.35;;;8.73;;
61915;SDS011;47868;51.326;6.550;2023-03-21T10:05:17;12.80;;;8.40;;
61915;SDS011;47868;51.326;6.550;2023-03-21T10:07:53;14.75;;;7.60;;
61915;SDS011;47868;51.326;6.550;2023-03-21T10:10:21;14.63;;;8.50;;
61915;SDS011;47868;51.326;6.550;2023-03-21T10:12:50;20.00;;;8.80;;
61915;SDS011;47868;51.326;6.550;2023-03-21T10:15:18;13.10;;;7.72;;
61915;SDS011;47868;51.326;6.550;2023-03-21T10:18:19;14.07;;;8.55;;
61915;SDS011;47868;51.326;6.550;2023-03-21T10:20:38;15.63;;;9.02;;
61915;SDS011;47868;51.326;6.550;2023-03-21T10:23:07;15.80;;;9.32;;
61915;SDS011;47868;51.326;6.550;2023-03-21T10:26:19;16.00;;;8.50;;
61915;SDS011;47868;51.326;6.550;2023-03-21T10:28:27;14.35;;;7.93;;
61915;SDS011;47868;51.326;6.550;2023-03-21T10:30:55;14.85;;;8.98;;
61915;SDS011;47868;51.326;6.550;2023-03-21T10:33:22;11.85;;;7.72;;
61915;SDS011;47868;51.326;6.550;2023-03-21T10:35:53;14.30;;;7.68;;
61915;SDS011;47868;51.326;6.550;2023-03-21T10:38:20;15.20;;;8.13;;
61915;SDS011;47868;51.326;6.550;2023-03-21T10:40:47;13.45;;;7.53;;
61915;SDS011;47868;51.326;6.550;2023-03-21T10:45:55;13.82;;;8.15;;
61915;SDS011;47868;51.326;6.550;2023-03-21T10:48:22;10.98;;;8.10;;
61915;SDS011;47868;51.326;6.550;2023-03-21T10:50:49;14.20;;;8.32;;
61915;SDS011;47868;51.326;6.550;2023-03-21T10:55:50;13.82;;;7.78;;
61915;SDS011;47868;51.326;6.550;2023-03-21T10:58:18;13.40;;;8.23;;
61915;SDS011;47868;51.326;6.550;2023-03-21T11:00:49;14.07;;;7.95;;
61915;SDS011;47868;51.326;6.550;2023-03-21T11:03:20;13.65;;;7.72;;
61915;SDS011;47868;51.326;6.550;2023-03-21T11:05:47;14.82;;;7.90;;
61915;SDS011;47868;51.326;6.550;2023-03-21T11:08:14;14.13;;;8.15;;
61915;SDS011;47868;51.326;6.550;2023-03-21T11:10:58;11.95;;;8.18;;
61915;SDS011;47868;51.326;6.550;2023-03-21T11:13:26;11.48;;;7.75;;
61915;SDS011;47868;51.326;6.550;2023-03-21T11:16:02;13.30;;;8.05;;
61915;SDS011;47868;51.326;6.550;2023-03-21T11:18:30;13.50;;;7.85;;
61915;SDS011;47868;51.326;6.550;2023-03-21T11:21:03;13.70;;;7.40;;
61915;SDS011;47868;51.326;6.550;2023-03-21T11:23:30;16.67;;;7.57;;
61915;SDS011;47868;51.326;6.550;2023-03-21T11:25:57;12.75;;;7.18;;
61915;SDS011;47868;51.326;6.550;2023-03-21T11:28:25;13.70;;;7.82;;
61915;SDS011;47868;51.326;6.550;2023-03-21T11:30:57;14.98;;;7.90;;
61915;SDS011;47868;51.326;6.550;2023-03-21T11:33:30;10.77;;;7.15;;
61915;SDS011;47868;51.326;6.550;2023-03-21T11:36:01;11.73;;;7.20;;
61915;SDS011;47868;51.326;6.550;2023-03-21T11:38:29;9.38;;;6.90;;
61915;SDS011;47868;51.326;6.550;2023-03-21T11:40:57;12.80;;;7.38;;
61915;SDS011;47868;51.326;6.550;2023-03-21T11:43:25;9.18;;;6.80;;
61915;SDS011;47868;51.326;6.550;2023-03-21T11:45:59;12.68;;;7.88;;
61915;SDS011;47868;51.326;6.550;2023-03-21T11:48:25;11.32;;;7.53;;
61915;SDS011;47868;51.326;6.550;2023-03-21T11:50:55;13.57;;;7.55;;
61915;SDS011;47868;51.326;6.550;2023-03-21T12:00:53;15.18;;;7.80;;
61915;SDS011;47868;51.326;6.550;2023-03-21T12:05:59;15.27;;;7.75;;
61915;SDS011;47868;51.326;6.550;2023-03-21T12:08:31;11.95;;;7.72;;
61915;SDS011;47868;51.326;6.550;2023-03-21T12:11:19;12.85;;;8.55;;
61915;SDS011;47868;51.326;6.550;2023-03-21T12:16:25;11.80;;;7.95;;
61915;SDS011;47868;51.326;6.550;2023-03-21T12:21:40;15.38;;;8.10;;
61915;SDS011;47868;51.326;6.550;2023-03-21T12:24:11;22.20;;;9.25;;
61915;SDS011;47868;51.326;6.550;2023-03-21T12:26:57;13.63;;;8.52;;
61915;SDS011;47868;51.326;6.550;2023-03-21T12:31:57;30.45;;;10.10;;
61915;SDS011;47868;51.326;6.550;2023-03-21T12:34:29;17.48;;;8.63;;
61915;SDS011;47868;51.326;6.550;2023-03-21T12:37:04;11.95;;;7.90;;
61915;SDS011;47868;51.326;6.550;2023-03-21T12:39:35;8.85;;;7.28;;
61915;SDS011;47868;51.326;6.550;2023-03-21T12:44:48;10.15;;;6.70;;
61915;SDS011;47868;51.326;6.550;2023-03-21T12:47:16;13.23;;;7.72;;
61915;SDS011;47868;51.326;6.550;2023-03-21T12:50:11;11.13;;;6.82;;
61915;SDS011;47868;51.326;6.550;2023-03-21T12:57:44;13.20;;;7.45;;
61915;SDS011;47868;51.326;6.550;2023-03-21T13:02:52;19.83;;;7.57;;
61915;SDS011;47868;51.326;6.550;2023-03-21T13:05:28;11.48;;;6.95;;
61915;SDS011;47868;51.326;6.550;2023-03-21T13:08:42;51.75;;;9.88;;
61915;SDS011;47868;51.326;6.550;2023-03-21T13:10:42;13.23;;;7.32;;
61915;SDS011;47868;51.326;6.550;2023-03-21T13:18:34;14.20;;;7.28;;
61915;SDS011;47868;51.326;6.550;2023-03-21T13:21:17;11.90;;;7.28;;
61915;SDS011;47868;51.326;6.550;2023-03-21T13:23:58;10.35;;;7.07;;
61915;SDS011;47868;51.326;6.550;2023-03-21T13:26:40;10.63;;;6.43;;
61915;SDS011;47868;51.326;6.550;2023-03-21T13:29:13;16.67;;;7.53;;
61915;SDS011;47868;51.326;6.550;2023-03-21T13:31:43;9.93;;;7.03;;
61915;SDS011;47868;51.326;6.550;2023-03-21T13:34:10;11.70;;;6.43;;
61915;SDS011;47868;51.326;6.550;2023-03-21T13:36:37;12.93;;;6.43;;
61915;SDS011;47868;51.326;6.550;2023-03-21T13:39:06;21.60;;;7.70;;
61915;SDS011;47868;51.326;6.550;2023-03-21T13:41:41;9.30;;;6.45;;
61915;SDS011;47868;51.326;6.550;2023-03-21T13:44:24;10.23;;;6.30;;
61915;SDS011;47868;51.326;6.550;2023-03-21T13:47:00;7.25;;;5.47;;
61915;SDS011;47868;51.326;6.550;2023-03-21T13:49:31;9.98;;;6.05;;
61915;SDS011;47868;51.326;6.550;2023-03-21T13:51:57;8.88;;;6.03;;
61915;SDS011;47868;51.326;6.550;2023-03-21T13:54:43;10.50;;;6.40;;
61915;SDS011;47868;51.326;6.550;2023-03-21T13:57:19;10.85;;;6.13;;
61915;SDS011;47868;51.326;6.550;2023-03-21T13:59:46;8.18;;;5.43;;
61915;SDS011;47868;51.326;6.550;2023-03-21T14:02:31;8.77;;;5.72;;
61915;SDS011;47868;51.326;6.550;2023-03-21T14:05:05;8.32;;;5.57;;
61915;SDS011;47868;51.326;6.550;2023-03-21T14:07:36;7.18;;;4.40;;
61915;SDS011;47868;51.326;6.550;2023-03-21T14:10:07;7.72;;;5.13;;
61915;SDS011;47868;51.326;6.550;2023-03-21T14:12:41;10.55;;;5.38;;
61915;SDS011;47868;51.326;6.550;2023-03-21T14:20:23;9.68;;;5.90;;
61915;SDS011;47868;51.326;6.550;2023-03-21T14:22:49;6.43;;;5.70;;
61915;SDS011;47868;51.326;6.550;2023-03-21T14:25:17;7.82;;;6.28;;
61915;SDS011;47868;51.326;6.550;2023-03-21T14:27:51;9.38;;;6.03;;
61915;SDS011;47868;51.326;6.550;2023-03-21T14:32:52;11.88;;;6.55;;
61915;SDS011;47868;51.326;6.550;2023-03-21T14:35:19;13.05;;;6.45;;
61915;SDS011;47868;51.326;6.550;2023-03-21T14:37:46;10.10;;;5.88;;
61915;SDS011;47868;51.326;6.550;2023-03-21T14:40:21;8.63;;;5.80;;
61915;SDS011;47868;51.326;6.550;2023-03-21T14:42:48;7.72;;;4.90;;
61915;SDS011;47868;51.326;6.550;2023-03-21T14:45:17;8.88;;;5.45;;
61915;SDS011;47868;51.326;6.550;2023-03-21T14:48:27;6.68;;;4.95;;
61915;SDS011;47868;51.326;6.550;2023-03-21T14:53:16;7.50;;;4.85;;
61915;SDS011;47868;51.326;6.550;2023-03-21T14:56:28;7.53;;;5.63;;
61915;SDS011;47868;51.326;6.550;2023-03-21T14:58:29;7.32;;;4.72;;
61915;SDS011;47868;51.326;6.550;2023-03-21T15:01:02;10.10;;;4.03;;
61915;SDS011;47868;51.326;6.550;2023-03-21T15:03:28;5.63;;;3.17;;
61915;SDS011;47868;51.326;6.550;2023-03-21T15:05:55;5.05;;;3.00;;
61915;SDS011;47868;51.326;6.550;2023-03-21T15:08:22;5.03;;;3.28;;
61915;SDS011;47868;51.326;6.550;2023-03-21T15:11:02;7.70;;;3.00;;
61915;SDS011;47868;51.326;6.550;2023-03-21T15:13:29;6.80;;;2.80;;
61915;SDS011;47868;51.326;6.550;2023-03-21T15:15:56;7.10;;;2.78;;
61915;SDS011;47868;51.326;6.550;2023-03-21T15:18:26;3.42;;;2.65;;
61915;SDS011;47868;51.326;6.550;2023-03-21T15:20:53;4.60;;;2.80;;
61915;SDS011;47868;51.326;6.550;2023-03-21T15:23:25;7.38;;;3.30;;
61915;SDS011;47868;51.326;6.550;2023-03-21T15:25:53;4.43;;;2.80;;
61915;SDS011;47868;51.326;6.550;2023-03-21T15:28:19;5.63;;;2.92;;
61915;SDS011;47868;51.326;6.550;2023-03-21T15:30:49;4.88;;;2.92;;
61915;SDS011;47868;51.326;6.550;2023-03-21T15:33:15;3.13;;;2.83;;
61915;SDS011;47868;51.326;6.550;2023-03-21T15:35:42;3.88;;;2.45;;
61915;SDS011;47868;51.326;6.550;2023-03-21T15:40:47;5.03;;;2.50;;
61915;SDS011;47868;51.326;6.550;2023-03-21T15:43:14;3.70;;;2.30;;
61915;SDS011;47868;51.326;6.550;2023-03-21T15:45:53;4.40;;;2.58;;
61915;SDS011;47868;51.326;6.550;2023-03-21T15:48:20;3.53;;;2.30;;
61915;SDS011;47868;51.326;6.550;2023-03-21T15:50:48;4.82;;;2.58;;
61915;SDS011;47868;51.326;6.550;2023-03-21T15:53:17;6.50;;;2.70;;
61915;SDS011;47868;51.326;6.550;2023-03-21T15:55:47;9.25;;;2.70;;
61915;SDS011;47868;51.326;6.550;2023-03-21T15:58:25;5.18;;;3.03;;
61915;SDS011;47868;51.326;6.550;2023-03-21T16:00:52;3.92;;;2.60;;
61915;SDS011;47868;51.326;6.550;2023-03-21T16:03:29;3.70;;;2.55;;
61915;SDS011;47868;51.326;6.550;2023-03-21T16:06:45;6.43;;;2.70;;
61915;SDS011;47868;51.326;6.550;2023-03-21T16:09:13;7.28;;;3.30;;
61915;SDS011;47868;51.326;6.550;2023-03-21T16:14:18;3.58;;;2.22;;
61915;SDS011;47868;51.326;6.550;2023-03-21T16:16:44;4.95;;;2.72;;
61915;SDS011;47868;51.326;6.550;2023-03-21T16:19:11;6.10;;;2.70;;
61915;SDS011;47868;51.326;6.550;2023-03-21T16:21:37;6.65;;;2.92;;